Lubbock, TX

5:40 AM CDT on August 28, 2014 (GMT -0500)
Lubbock International | Change Station
CLOSE
Current Station
Airport
Location: Lubbock,
Elevation: 3241 ft
Nearby Weather Stations

Elev 3241 ft 33.67 °N, 101.82 °W | Updated 47 minutes ago

Overcast
Overcast
75 °F
Feels Like 75 °F
N
10
Wind Variable Wind from SSE

Today
High -- | Low -- °F
--% Chance of Precip.
Yesterday
High -- | Low -- °F
Precip. -- in
7:18 AM 8:17 PM
Waxing Crescent, 7% visible
Pressure 29.86 in
Visibility 10.0 miles
Clouds Few 9500 ft
Mostly Cloudy 11000 ft
Overcast 14000 ft
Dew Point 62 °F
Humidity 64%
Rainfall 0.00 in
Snow Depth Not available.
UV 0 out of 12
Pollen 8.90 out of 12
Air Quality Not available.
Flu Activity Not available.
METAR KLBB 280953Z 15009KT 10SM FEW095 BKN110 OVC140 24/17 A3004 RMK AO2 SLP111 T02390167

More Conditions Fewer Conditions

Pressure 29.86 in
Visibility 10.0 miles
Clouds Few 9500 ft
Mostly Cloudy 11000 ft
Overcast 14000 ft
Dew Point 62 °F
Humidity 64%
Rainfall 0.00 in
Snow Depth Not available.
UV 0 out of 12
Pollen 8.90 out of 12
Air Quality Not available.
Flu Activity Not available.
METAR KLBB 280953Z 15009KT 10SM FEW095 BKN110 OVC140 24/17 A3004 RMK AO2 SLP111 T02390167

More Conditions Fewer Conditions

10-Day Weather Forecast

Almanac

Astronomy

Aug. 28, 2014 Rise Set
Actual Time 7:18 AM CDT 8:17 PM CDT
Civil Twilight 6:53 AM CDT 8:43 PM CDT
Nautical Twilight 6:22 AM CDT 9:13 PM CDT
Astronomical Twilight 5:51 AM CDT 9:44 PM CDT
Moon 10:02 AM CDT 9:54 PM CDT
Length of Visible Light 13h 50m
Length of Day
12h 59m
Tomorrow will be 1m 58s shorter.
Waxing Crescent, 7% of the Moon is Illuminated
Today
Waxing Crescent
Sep 2
First Quarter
Sep 8
Full
Sep 15
Last Quarter
Sep 24
New

Today's Extremes

State Highs State Lows

Community

WunderPhotos

Upload Photos

1,747,920 photos uploaded!

Nearby

Air Quality

  Air Quality AQ Index Pollutant
Thursday Good
PM10
Thursday Good
OZONE
Friday Good
PM10
Friday Good
OZONE
Saturday Good
PM10
Saturday Good
OZONE

Snow Depth

Station Depth Elevation
No new snow has been reported.

Earthquake Activity

City Distance Mag. Time & Date
No recent earthquake activity has been reported nearby.
Minimum magnitude displayed is 2.5.

Coastal Water Temperatures

Place Temperature
No Stations Reporting

Nearby Weather Stations